createdAt,value
2022-11-29T00:00:58.545Z,100935.75
2022-11-29T00:03:30.216Z,100940.81
2022-11-29T00:06:05.682Z,100935.13
2022-11-29T00:08:41.430Z,100926.16
2022-11-29T00:11:35.766Z,100927.25
2022-11-29T00:14:10.116Z,100918.44
2022-11-29T00:16:42.741Z,100917.00
2022-11-29T00:19:14.087Z,100913.75
2022-11-29T00:21:51.726Z,100917.63
2022-11-29T00:24:21.897Z,100907.19
2022-11-29T00:26:59.931Z,100910.38
2022-11-29T00:29:28.116Z,100902.69
2022-11-29T00:31:59.209Z,100904.13
2022-11-29T00:34:35.038Z,100902.50
2022-11-29T00:37:08.520Z,100908.13
2022-11-29T00:39:41.870Z,100904.84
2022-11-29T00:42:17.835Z,100900.31
2022-11-29T00:44:48.477Z,100901.06
2022-11-29T00:47:18.220Z,100898.25
2022-11-29T00:49:51.364Z,100898.25
2022-11-29T00:52:24.760Z,100908.53
2022-11-29T00:55:00.306Z,100915.34
2022-11-29T00:57:33.085Z,100906.13
2022-11-29T01:00:09.416Z,100906.81
2022-11-29T01:02:42.742Z,100909.97
2022-11-29T01:05:18.776Z,100897.94
2022-11-29T01:07:49.233Z,100902.66
2022-11-29T01:10:22.443Z,100909.78
2022-11-29T01:12:56.622Z,100912.25
2022-11-29T01:15:27.150Z,100904.47
2022-11-29T01:17:57.058Z,100900.00
2022-11-29T01:20:32.263Z,100906.56
2022-11-29T01:23:04.236Z,100903.75
2022-11-29T01:25:39.523Z,100900.09
2022-11-29T01:28:12.042Z,100903.28
2022-11-29T01:30:41.743Z,100898.00
2022-11-29T01:33:09.413Z,100906.91
2022-11-29T01:35:54.624Z,100903.28
2022-11-29T01:38:24.942Z,100910.41
2022-11-29T01:41:08.636Z,100909.25
2022-11-29T01:44:04.673Z,100902.47
2022-11-29T01:46:38.401Z,100901.66
2022-11-29T01:49:17.888Z,100902.47
2022-11-29T01:52:09.064Z,100899.66
2022-11-29T01:54:40.616Z,100901.28
2022-11-29T01:57:11.687Z,100901.66
2022-11-29T01:59:48.064Z,100888.78
2022-11-29T02:02:31.214Z,100885.56
2022-11-29T02:05:05.404Z,100890.44
2022-11-29T02:07:37.043Z,100885.75
2022-11-29T02:10:06.861Z,100883.38
2022-11-29T02:12:48.450Z,100873.88
2022-11-29T02:15:34.423Z,100870.38
2022-11-29T02:18:29.373Z,100873.59
2022-11-29T02:21:15.265Z,100868.91
2022-11-29T02:23:57.643Z,100874.25
2022-11-29T02:26:42.657Z,100871.91
2022-11-29T02:29:28.319Z,100875.91
2022-11-29T02:32:14.459Z,100876.31
2022-11-29T02:35:01.210Z,100870.16
2022-11-29T02:38:06.615Z,100866.56
2022-11-29T02:40:45.931Z,100872.25
2022-11-29T02:43:28.331Z,100877.13
2022-11-29T02:46:52.110Z,100865.03
2022-11-29T02:49:23.265Z,100866.28
2022-11-29T02:52:36.017Z,100859.16
2022-11-29T02:55:25.623Z,100863.09
2022-11-29T02:58:28.485Z,100861.13
2022-11-29T03:01:08.439Z,100848.84
2022-11-29T03:03:45.034Z,100858.69
2022-11-29T03:06:26.690Z,100859.41
2022-11-29T03:09:17.110Z,100859.06
2022-11-29T03:12:09.257Z,100850.19
2022-11-29T03:15:01.647Z,100858.94
2022-11-29T03:17:34.743Z,100860.13
2022-11-29T03:20:21.264Z,100856.06
2022-11-29T03:23:08.439Z,100854.19
2022-11-29T03:26:05.338Z,100860.84
2022-11-29T03:28:45.323Z,100864.28
2022-11-29T03:31:28.918Z,100858.97
2022-11-29T03:34:18.840Z,100858.97
2022-11-29T03:36:58.299Z,100859.22
2022-11-29T03:39:39.949Z,100865.56
2022-11-29T03:42:46.291Z,100854.72
2022-11-29T03:45:49.266Z,100859.03
2022-11-29T03:48:26.470Z,100856.16
2022-11-29T03:51:05.087Z,100848.34
2022-11-29T03:54:05.373Z,100856.41
2022-11-29T03:56:36.377Z,100857.22
2022-11-29T03:59:18.489Z,100850.69
2022-11-29T04:02:17.647Z,100852.31
2022-11-29T04:05:28.941Z,100851.06
2022-11-29T04:08:20.750Z,100847.81
2022-11-29T04:11:08.867Z,100853.41
2022-11-29T04:13:55.106Z,100863.81
2022-11-29T04:17:10.993Z,100854.22
2022-11-29T04:20:07.711Z,100853.75
2022-11-29T04:22:43.928Z,100849.78
2022-11-29T04:25:36.384Z,100848.84
2022-11-29T04:28:15.657Z,100854.03
2022-11-29T04:31:06.281Z,100851.56
2022-11-29T04:33:58.034Z,100859.88
2022-11-29T04:36:46.750Z,100855.81
2022-11-29T04:39:47.566Z,100853.13
2022-11-29T04:42:30.673Z,100853.38
2022-11-29T04:45:10.172Z,100859.44
2022-11-29T04:47:52.001Z,100856.28
2022-11-29T04:50:46.602Z,100851.75
2022-11-29T04:53:44.714Z,100852.19
2022-11-29T04:56:14.742Z,100855.81
2022-11-29T04:59:06.202Z,100859.34
2022-11-29T05:02:02.815Z,100860.41
2022-11-29T05:04:38.542Z,100859.59
2022-11-29T05:07:35.485Z,100867.06
2022-11-29T05:10:29.803Z,100870.81
2022-11-29T05:13:14.497Z,100857.97
2022-11-29T05:15:59.007Z,100865.66
2022-11-29T05:18:47.463Z,100870.91
2022-11-29T05:21:52.288Z,100866.09
2022-11-29T05:25:01.897Z,100869.38
2022-11-29T05:27:48.695Z,100871.47
2022-11-29T05:30:34.601Z,100871.47
2022-11-29T05:33:11.417Z,100875.88
2022-11-29T05:36:13.713Z,100876.69
2022-11-29T05:39:06.290Z,100879.50
2022-11-29T05:41:36.703Z,100881.97
2022-11-29T05:44:24.040Z,100877.50
2022-11-29T05:47:02.487Z,100881.50
2022-11-29T05:50:17.078Z,100877.16
2022-11-29T05:53:07.789Z,100891.28
2022-11-29T05:55:46.513Z,100873.56
2022-11-29T05:58:30.507Z,100883.25
2022-11-29T06:01:29.513Z,100887.28
2022-11-29T06:04:21.396Z,100894.56
2022-11-29T06:07:11.623Z,100888.47
2022-11-29T06:09:51.317Z,100893.28
2022-11-29T06:12:23.553Z,100891.28
2022-11-29T06:15:13.729Z,100892.09
2022-11-29T06:18:28.683Z,100896.88
2022-11-29T06:21:17.571Z,100897.69
2022-11-29T06:24:06.493Z,100894.09
2022-11-29T06:26:46.112Z,100893.28
2022-11-29T06:29:29.896Z,100893.72
2022-11-29T06:32:34.219Z,100896.50
2022-11-29T06:35:11.923Z,100906.56
2022-11-29T06:37:45.195Z,100899.31
2022-11-29T06:40:15.833Z,100902.59
2022-11-29T06:42:46.024Z,100898.50
2022-11-29T06:45:16.244Z,100903.88
2022-11-29T06:48:10.384Z,100907.78
2022-11-29T06:50:56.077Z,100914.47
2022-11-29T06:53:46.379Z,100907.47
2022-11-29T06:56:45.808Z,100911.56
2022-11-29T06:59:39.235Z,100905.16
2022-11-29T07:02:45.656Z,100908.75
2022-11-29T07:05:28.203Z,100912.63
2022-11-29T07:07:58.162Z,100913.19
2022-11-29T07:10:27.691Z,100914.00
2022-11-29T07:12:55.302Z,100915.84
2022-11-29T07:15:23.762Z,100911.22
2022-11-29T07:18:38.431Z,100906.44
2022-11-29T07:21:32.972Z,100920.75
2022-11-29T07:24:26.264Z,100914.44
2022-11-29T07:27:26.681Z,100914.53
2022-11-29T07:30:42.035Z,100911.19
2022-11-29T07:33:15.447Z,100912.63
2022-11-29T07:35:58.850Z,100911.78
2022-11-29T07:38:39.897Z,100911.47
2022-11-29T07:41:17.656Z,100914.28
2022-11-29T07:44:08.769Z,100909.56
2022-11-29T07:46:42.136Z,100914.28
2022-11-29T07:49:13.768Z,100910.81
2022-11-29T07:51:48.998Z,100911.59
2022-11-29T07:54:19.021Z,100907.88
2022-11-29T07:56:54.383Z,100906.25
2022-11-29T07:59:23.469Z,100915.88
2022-11-29T08:01:59.643Z,100917.06
2022-11-29T08:04:30.045Z,100917.22
2022-11-29T08:07:03.160Z,100920.22
2022-11-29T08:09:33.560Z,100920.75
2022-11-29T08:12:04.068Z,100917.28
2022-11-29T08:14:38.770Z,100915.28
2022-11-29T08:17:13.400Z,100914.25
2022-11-29T08:19:49.641Z,100914.47
2022-11-29T08:22:26.530Z,100913.09
2022-11-29T08:25:05.795Z,100923.22
2022-11-29T08:27:42.080Z,100919.41
2022-11-29T08:30:10.030Z,100927.88
2022-11-29T08:32:51.224Z,100918.56
2022-11-29T08:35:24.977Z,100927.88
2022-11-29T08:38:05.174Z,100924.91
2022-11-29T08:40:44.483Z,100926.19
2022-11-29T08:43:20.883Z,100927.44
2022-11-29T08:46:00.937Z,100926.72
2022-11-29T08:48:35.696Z,100935.59
2022-11-29T08:51:15.513Z,100935.41
2022-11-29T08:53:57.278Z,100936.06
2022-11-29T08:57:16.664Z,100932.81
2022-11-29T08:59:37.804Z,100931.91
2022-11-29T09:02:05.751Z,100932.66
2022-11-29T09:04:39.084Z,100939.56
2022-11-29T09:07:08.896Z,100943.19
2022-11-29T09:09:41.647Z,100946.31
2022-11-29T09:12:14.562Z,100946.16
2022-11-29T09:14:50.483Z,100950.00
2022-11-29T09:17:23.292Z,100959.13
2022-11-29T09:19:51.131Z,100954.31
2022-11-29T09:22:24.052Z,100957.59
2022-11-29T09:24:56.039Z,100959.06
2022-11-29T09:27:29.207Z,100960.00
2022-11-29T09:29:59.674Z,100955.50
2022-11-29T09:32:39.977Z,100961.84
2022-11-29T09:35:08.219Z,100962.50
2022-11-29T09:37:47.223Z,100953.34
2022-11-29T09:40:28.008Z,100957.78
2022-11-29T09:43:23.900Z,100962.38
2022-11-29T09:46:00.500Z,100958.19
2022-11-29T09:48:55.652Z,100969.59
2022-11-29T09:51:41.151Z,100973.78
2022-11-29T09:54:30.090Z,100967.75
2022-11-29T09:57:10.336Z,100966.63
2022-11-29T09:59:51.870Z,100963.44
2022-11-29T10:02:25.892Z,100969.31
2022-11-29T10:05:05.746Z,100972.06
2022-11-29T10:07:41.062Z,100964.31
2022-11-29T10:10:29.741Z,100960.41
2022-11-29T10:13:26.644Z,100955.75
2022-11-29T10:16:04.308Z,100961.81
2022-11-29T10:18:51.393Z,100969.50
2022-11-29T10:21:28.091Z,100955.81
2022-11-29T10:24:07.492Z,100964.25
2022-11-29T10:26:43.645Z,100956.50
2022-11-29T10:29:19.286Z,100955.88
2022-11-29T10:31:49.686Z,100958.22
2022-11-29T10:34:27.234Z,100950.06
2022-11-29T10:37:02.726Z,100948.56
2022-11-29T10:39:42.266Z,100942.59
2022-11-29T10:42:47.372Z,100935.66
2022-11-29T10:45:34.045Z,100933.59
2022-11-29T10:48:12.263Z,100935.16
2022-11-29T10:50:50.105Z,100937.31
2022-11-29T10:53:39.597Z,100928.53
2022-11-29T10:56:24.274Z,100937.44
2022-11-29T10:59:09.528Z,100932.09
2022-11-29T11:01:41.262Z,100925.88
2022-11-29T11:04:32.785Z,100930.94
2022-11-29T11:07:08.926Z,100931.41
2022-11-29T11:09:50.709Z,100921.00
2022-11-29T11:12:29.164Z,100928.16
2022-11-29T11:15:26.616Z,100934.50
2022-11-29T11:18:04.990Z,100928.41
2022-11-29T11:20:44.501Z,100927.22
2022-11-29T11:23:29.317Z,100931.41
2022-11-29T11:25:58.738Z,100927.50
2022-11-29T11:28:38.347Z,100933.88
2022-11-29T11:31:11.919Z,100928.84
2022-11-29T11:33:45.545Z,100933.16
2022-11-29T11:36:22.289Z,100933.22
2022-11-29T11:39:01.352Z,100933.28
2022-11-29T11:41:55.281Z,100928.16
2022-11-29T11:44:51.464Z,100934.50
2022-11-29T11:47:35.140Z,100933.88
2022-11-29T11:50:15.004Z,100929.44
2022-11-29T11:52:53.429Z,100942.03
2022-11-29T11:55:35.857Z,100940.19
2022-11-29T11:58:21.112Z,100937.31
2022-11-29T12:01:04.072Z,100933.59
2022-11-29T12:03:56.028Z,100940.72
2022-11-29T12:06:45.050Z,100941.44
2022-11-29T12:09:52.940Z,100936.78
2022-11-29T12:12:26.123Z,100935.66
2022-11-29T12:15:08.724Z,100934.44
2022-11-29T12:18:02.160Z,100926.25
2022-11-29T12:20:40.235Z,100937.44
2022-11-29T12:23:13.555Z,100934.19
2022-11-29T12:25:58.223Z,100940.41
2022-11-29T12:28:33.290Z,100940.19
2022-11-29T12:31:31.614Z,100943.00
2022-11-29T12:34:22.635Z,100948.16
2022-11-29T12:37:21.710Z,100943.63
2022-11-29T12:40:00.455Z,100937.72
2022-11-29T12:43:04.079Z,100946.91
2022-11-29T12:45:40.041Z,100932.16
2022-11-29T12:48:31.665Z,100939.31
2022-11-29T12:51:14.162Z,100937.31
2022-11-29T12:54:05.931Z,100940.06
2022-11-29T12:56:35.998Z,100938.69
2022-11-29T12:59:54.078Z,100937.06
2022-11-29T13:02:45.812Z,100935.81
2022-11-29T13:05:31.048Z,100934.25
2022-11-29T13:08:22.927Z,100930.94
2022-11-29T13:11:19.648Z,100935.75
2022-11-29T13:14:43.205Z,100932.25
2022-11-29T13:17:27.870Z,100930.44
2022-11-29T13:20:31.902Z,100925.97
2022-11-29T13:23:45.614Z,100926.34
2022-11-29T13:26:39.699Z,100931.03
2022-11-29T13:29:25.000Z,100929.75
2022-11-29T13:32:14.546Z,100935.16
2022-11-29T13:34:51.543Z,100924.53
2022-11-29T13:37:38.558Z,100929.13
2022-11-29T13:40:34.025Z,100925.75
2022-11-29T13:43:18.793Z,100921.25
2022-11-29T13:46:01.466Z,100926.88
2022-11-29T13:48:32.474Z,100932.88
2022-11-29T13:51:25.438Z,100929.53
2022-11-29T13:54:04.430Z,100932.34
2022-11-29T13:56:50.990Z,100927.63
2022-11-29T13:59:31.489Z,100929.88
2022-11-29T14:02:02.322Z,100924.00
2022-11-29T14:04:46.284Z,100925.94
2022-11-29T14:07:21.093Z,100921.78
2022-11-29T14:10:28.306Z,100920.63
2022-11-29T14:13:01.976Z,100920.13
2022-11-29T14:15:38.765Z,100928.31
2022-11-29T14:18:42.240Z,100921.47
2022-11-29T14:21:16.963Z,100921.38
2022-11-29T14:23:52.708Z,100929.44
2022-11-29T14:26:29.171Z,100924.03
2022-11-29T14:29:23.282Z,100925.84
2022-11-29T14:31:58.694Z,100919.59
2022-11-29T14:34:35.062Z,100928.09
2022-11-29T14:37:16.755Z,100921.53
2022-11-29T14:39:54.182Z,100925.50
2022-11-29T14:42:32.468Z,100925.03
2022-11-29T14:45:34.261Z,100921.19
2022-11-29T14:48:24.422Z,100925.03
2022-11-29T14:51:17.657Z,100931.94
2022-11-29T14:53:49.118Z,100929.81
2022-11-29T14:56:39.227Z,100936.25
2022-11-29T14:59:49.218Z,100924.25
2022-11-29T15:02:39.838Z,100921.28
2022-11-29T15:05:22.505Z,100919.28
2022-11-29T15:08:20.875Z,100929.66
2022-11-29T15:10:53.523Z,100926.59
2022-11-29T15:13:41.231Z,100933.72
2022-11-29T15:16:46.032Z,100927.97
2022-11-29T15:19:35.580Z,100929.28
2022-11-29T15:22:26.969Z,100925.72
2022-11-29T15:25:08.438Z,100921.19
2022-11-29T15:27:40.114Z,100929.16
2022-11-29T15:30:41.054Z,100921.16
2022-11-29T15:33:23.611Z,100922.13
2022-11-29T15:36:03.949Z,100924.50
2022-11-29T15:38:46.525Z,100921.03
2022-11-29T15:41:32.425Z,100919.63
2022-11-29T15:44:10.243Z,100926.81
2022-11-29T15:46:44.429Z,100926.44
2022-11-29T15:49:27.196Z,100929.25
2022-11-29T15:52:11.055Z,100932.97
2022-11-29T15:54:49.305Z,100927.28
2022-11-29T15:57:43.126Z,100931.44
2022-11-29T16:00:24.801Z,100925.81
2022-11-29T16:03:09.464Z,100928.63
2022-11-29T16:05:44.577Z,100924.16
2022-11-29T16:08:22.978Z,100923.38
2022-11-29T16:10:55.742Z,100930.78
2022-11-29T16:13:36.496Z,100929.81
2022-11-29T16:16:23.497Z,100925.34
2022-11-29T16:18:54.615Z,100928.94
2022-11-29T16:21:31.626Z,100932.63
2022-11-29T16:24:22.625Z,100923.47
2022-11-29T16:27:03.201Z,100920.84
2022-11-29T16:29:55.838Z,100927.19
2022-11-29T16:32:42.102Z,100924.91
2022-11-29T16:35:29.990Z,100922.47
2022-11-29T16:38:07.265Z,100929.56
2022-11-29T16:40:41.336Z,100931.97
2022-11-29T16:43:53.879Z,100931.34
2022-11-29T16:46:37.636Z,100932.22
2022-11-29T16:49:38.966Z,100927.97
2022-11-29T16:52:29.007Z,100928.72
2022-11-29T16:55:06.749Z,100926.88
2022-11-29T16:57:37.553Z,100933.53
2022-11-29T17:00:31.908Z,100928.69
2022-11-29T17:03:10.481Z,100932.16
2022-11-29T17:05:44.920Z,100936.28
2022-11-29T17:08:15.822Z,100940.63
2022-11-29T17:10:46.820Z,100948.50
2022-11-29T17:13:20.526Z,100940.81
2022-11-29T17:16:02.437Z,100945.81
2022-11-29T17:18:44.958Z,100949.38
2022-11-29T17:21:29.704Z,100951.38
2022-11-29T17:24:06.865Z,100943.97
2022-11-29T17:26:44.029Z,100957.81
2022-11-29T17:29:23.801Z,100955.63
2022-11-29T17:32:04.317Z,100959.88
2022-11-29T17:34:49.783Z,100967.94
2022-11-29T17:37:39.780Z,100969.38
2022-11-29T17:40:13.144Z,100973.09
2022-11-29T17:42:54.608Z,100976.16
2022-11-29T17:45:28.678Z,100981.19
2022-11-29T17:48:02.066Z,100988.63
2022-11-29T17:50:40.463Z,100977.13
2022-11-29T17:53:10.508Z,100982.31
2022-11-29T17:55:49.425Z,100983.19
2022-11-29T17:58:24.273Z,100980.31
2022-11-29T18:01:13.347Z,100982.75
2022-11-29T18:03:45.721Z,100983.88
2022-11-29T18:06:18.542Z,100979.22
2022-11-29T18:08:57.849Z,100982.75
2022-11-29T18:11:52.291Z,100974.31
2022-11-29T18:14:34.335Z,100982.41
2022-11-29T18:17:14.804Z,100982.03
2022-11-29T18:19:56.500Z,100984.41
2022-11-29T18:22:36.495Z,100987.56
2022-11-29T18:25:37.543Z,100995.13
2022-11-29T18:28:14.266Z,100998.31
2022-11-29T18:30:44.512Z,100997.88
2022-11-29T18:33:23.642Z,101001.84
2022-11-29T18:36:05.459Z,101004.66
2022-11-29T18:38:39.376Z,101000.63
2022-11-29T18:41:21.475Z,101013.41
2022-11-29T18:44:00.593Z,101015.03
2022-11-29T18:46:40.529Z,101008.13
2022-11-29T18:49:18.250Z,101019.78
2022-11-29T18:51:52.207Z,101024.59
2022-11-29T18:54:31.703Z,101016.16
2022-11-29T18:57:00.663Z,101025.31
2022-11-29T18:59:44.405Z,101023.25
2022-11-29T19:02:21.432Z,101029.28
2022-11-29T19:04:54.196Z,101037.31
2022-11-29T19:07:29.418Z,101039.22
2022-11-29T19:10:02.761Z,101040.38
2022-11-29T19:12:39.083Z,101038.38
2022-11-29T19:15:13.382Z,101044.84
2022-11-29T19:17:45.052Z,101048.00
2022-11-29T19:20:16.225Z,101040.97
2022-11-29T19:23:00.297Z,101044.00
2022-11-29T19:25:39.368Z,101047.56
2022-11-29T19:28:14.403Z,101049.13
2022-11-29T19:30:57.625Z,101047.47
2022-11-29T19:33:31.937Z,101051.41
2022-11-29T19:36:15.245Z,101057.00
2022-11-29T19:38:55.299Z,101050.78
2022-11-29T19:41:37.464Z,101061.44
2022-11-29T19:44:12.868Z,101055.56
2022-11-29T19:46:48.276Z,101064.19
2022-11-29T19:49:32.077Z,101059.19
2022-11-29T19:52:09.663Z,101058.41
2022-11-29T19:54:45.552Z,101063.19
2022-11-29T19:57:16.599Z,101061.56
2022-11-29T20:02:26.062Z,101055.38
2022-11-29T20:05:02.311Z,101064.16
2022-11-29T20:07:37.414Z,101057.75
2022-11-29T20:10:13.980Z,101062.53
2022-11-29T20:12:52.848Z,101065.81
2022-11-29T20:15:29.182Z,101065.63
2022-11-29T20:18:08.212Z,101065.63
2022-11-29T20:20:47.120Z,101061.19
2022-11-29T20:23:25.878Z,101065.28
2022-11-29T20:25:56.945Z,101069.28
2022-11-29T20:28:38.781Z,101066.09
2022-11-29T20:31:21.216Z,101066.09
2022-11-29T20:34:00.963Z,101072.44
2022-11-29T20:37:07.568Z,101070.44
2022-11-29T20:39:50.179Z,101057.56
2022-11-29T20:42:39.476Z,101065.53
2022-11-29T20:45:16.398Z,101071.16
2022-11-29T20:48:02.585Z,101063.09
2022-11-29T20:50:39.158Z,101061.91
2022-11-29T20:53:36.138Z,101060.56
2022-11-29T20:56:05.596Z,101064.56
2022-11-29T20:58:42.233Z,101070.81
2022-11-29T21:01:18.262Z,101068.63
2022-11-29T21:03:57.036Z,101072.59
2022-11-29T21:06:27.301Z,101083.50
2022-11-29T21:09:03.313Z,101075.88
2022-11-29T21:11:39.459Z,101076.59
2022-11-29T21:14:10.733Z,101077.78
2022-11-29T21:16:48.807Z,101070.09
2022-11-29T21:19:28.700Z,101068.47
2022-11-29T21:22:29.528Z,101068.81
2022-11-29T21:25:15.073Z,101056.28
2022-11-29T21:27:48.701Z,101057.94
2022-11-29T21:30:26.604Z,101061.47
2022-11-29T21:33:06.659Z,101053.06
2022-11-29T21:35:48.966Z,101063.44
2022-11-29T21:38:23.139Z,101057.47
2022-11-29T21:41:03.840Z,101064.00
2022-11-29T21:44:05.439Z,101053.94
2022-11-29T21:46:45.696Z,101049.16
2022-11-29T21:49:29.683Z,101048.25
2022-11-29T21:52:05.165Z,101046.34
2022-11-29T21:54:41.094Z,101052.34
2022-11-29T21:57:22.144Z,101046.25
2022-11-29T22:00:03.937Z,101041.44
2022-11-29T22:02:37.413Z,101043.69
2022-11-29T22:05:18.584Z,101044.63
2022-11-29T22:07:58.199Z,101041.72
2022-11-29T22:10:32.811Z,101042.44
2022-11-29T22:13:14.448Z,101032.38
2022-11-29T22:15:50.821Z,101040.72
2022-11-29T22:18:27.867Z,101041.19
2022-11-29T22:21:07.105Z,101040.81
2022-11-29T22:23:45.332Z,101038.38
2022-11-29T22:26:18.899Z,101034.19
2022-11-29T22:28:59.627Z,101041.00
2022-11-29T22:31:37.308Z,101051.03
2022-11-29T22:34:09.050Z,101036.91
2022-11-29T22:36:40.731Z,101036.91
2022-11-29T22:39:14.725Z,101036.44
2022-11-29T22:41:55.068Z,101036.44
2022-11-29T22:44:39.866Z,101039.63
2022-11-29T22:47:15.721Z,101033.09
2022-11-29T22:49:51.986Z,101036.25
2022-11-29T22:52:26.988Z,101038.69
2022-11-29T22:55:08.641Z,101039.41
2022-11-29T22:57:43.724Z,101034.09
2022-11-29T23:00:17.877Z,101032.47
2022-11-29T23:03:00.535Z,101032.81
2022-11-29T23:05:38.750Z,101036.41
2022-11-29T23:08:11.544Z,101034.28
2022-11-29T23:10:47.558Z,101036.66
2022-11-29T23:13:23.429Z,101039.09
2022-11-29T23:16:05.890Z,101033.50
2022-11-29T23:18:42.257Z,101033.06
2022-11-29T23:21:37.111Z,101040.63
2022-11-29T23:24:12.896Z,101038.19
2022-11-29T23:26:49.905Z,101039.00
2022-11-29T23:29:28.713Z,101039.81
2022-11-29T23:32:00.758Z,101030.97
2022-11-29T23:34:40.197Z,101041.81
2022-11-29T23:37:10.682Z,101037.72
2022-11-29T23:39:53.211Z,101044.06
2022-11-29T23:42:31.388Z,101034.81
2022-11-29T23:45:07.343Z,101036.00
2022-11-29T23:47:42.979Z,101037.19
2022-11-29T23:50:21.987Z,101031.59
2022-11-29T23:52:59.479Z,101037.19
2022-11-29T23:55:39.917Z,101035.19
2022-11-29T23:58:12.964Z,101036.00
